sensor_id;sensor_type;location;lat;lon;timestamp;pressure;altitude;pressure_sealevel;temperature;humidity
65019;BME280;66069;51.164;-114.452;2024-03-02T00:01:16;86930.03;;;16.71;47.12
65019;BME280;66069;51.164;-114.452;2024-03-02T00:03:42;86939.53;;;16.68;47.26
65019;BME280;66069;51.164;-114.452;2024-03-02T00:06:10;86924.91;;;16.63;47.15
65019;BME280;66069;51.164;-114.452;2024-03-02T00:08:36;86951.59;;;16.69;47.17
65019;BME280;66069;51.164;-114.452;2024-03-02T00:11:02;86957.00;;;16.65;47.20
65019;BME280;66069;51.164;-114.452;2024-03-02T00:13:29;86963.84;;;16.63;47.23
65019;BME280;66069;51.164;-114.452;2024-03-02T00:15:59;86971.28;;;16.68;47.13
65019;BME280;66069;51.164;-114.452;2024-03-02T00:18:27;86966.84;;;16.65;47.37
65019;BME280;66069;51.164;-114.452;2024-03-02T00:20:56;86963.78;;;16.66;47.45
65019;BME280;66069;51.164;-114.452;2024-03-02T00:23:23;86967.97;;;16.64;47.41
65019;BME280;66069;51.164;-114.452;2024-03-02T00:25:55;86972.47;;;16.67;47.41
65019;BME280;66069;51.164;-114.452;2024-03-02T00:28:27;86961.13;;;16.66;47.46
65019;BME280;66069;51.164;-114.452;2024-03-02T00:33:46;86955.91;;;16.63;47.29
65019;BME280;66069;51.164;-114.452;2024-03-02T00:36:22;86943.34;;;16.67;47.08
65019;BME280;66069;51.164;-114.452;2024-03-02T00:38:49;86951.72;;;16.65;46.88
65019;BME280;66069;51.164;-114.452;2024-03-02T00:41:28;86959.16;;;16.71;46.67
65019;BME280;66069;51.164;-114.452;2024-03-02T00:46:35;86974.63;;;16.72;46.27
65019;BME280;66069;51.164;-114.452;2024-03-02T00:49:04;86970.06;;;16.73;46.20
65019;BME280;66069;51.164;-114.452;2024-03-02T00:51:33;86973.34;;;16.77;46.13
65019;BME280;66069;51.164;-114.452;2024-03-02T00:54:10;86968.16;;;16.73;46.00
65019;BME280;66069;51.164;-114.452;2024-03-02T00:56:36;86967.09;;;16.71;46.09
65019;BME280;66069;51.164;-114.452;2024-03-02T00:59:03;86966.44;;;16.66;46.06
65019;BME280;66069;51.164;-114.452;2024-03-02T01:01:29;86981.56;;;16.66;46.18
65019;BME280;66069;51.164;-114.452;2024-03-02T01:03:55;86977.75;;;16.67;45.88
65019;BME280;66069;51.164;-114.452;2024-03-02T01:06:21;86971.38;;;16.64;45.95
65019;BME280;66069;51.164;-114.452;2024-03-02T01:08:48;86950.16;;;16.52;46.23
65019;BME280;66069;51.164;-114.452;2024-03-02T01:11:17;86982.38;;;16.63;46.31
65019;BME280;66069;51.164;-114.452;2024-03-02T01:13:44;86979.31;;;16.64;46.29
65019;BME280;66069;51.164;-114.452;2024-03-02T01:16:11;86970.72;;;16.60;46.45
65019;BME280;66069;51.164;-114.452;2024-03-02T01:18:38;86954.13;;;16.60;46.86
65019;BME280;66069;51.164;-114.452;2024-03-02T01:21:04;86972.72;;;16.73;46.77
65019;BME280;66069;51.164;-114.452;2024-03-02T01:23:30;86964.28;;;16.78;46.92
65019;BME280;66069;51.164;-114.452;2024-03-02T01:25:56;86958.13;;;16.81;46.78
65019;BME280;66069;51.164;-114.452;2024-03-02T01:28:23;86959.84;;;16.87;46.59
65019;BME280;66069;51.164;-114.452;2024-03-02T01:30:49;86958.78;;;16.85;46.56
65019;BME280;66069;51.164;-114.452;2024-03-02T01:33:17;86954.91;;;16.89;46.44
65019;BME280;66069;51.164;-114.452;2024-03-02T01:35:43;86944.06;;;16.84;46.38
65019;BME280;66069;51.164;-114.452;2024-03-02T01:38:10;86943.88;;;16.91;46.48
65019;BME280;66069;51.164;-114.452;2024-03-02T01:40:37;86956.28;;;16.94;46.25
65019;BME280;66069;51.164;-114.452;2024-03-02T01:43:07;86949.50;;;16.93;46.51
65019;BME280;66069;51.164;-114.452;2024-03-02T01:45:35;86942.78;;;16.88;46.39
65019;BME280;66069;51.164;-114.452;2024-03-02T01:48:06;86951.28;;;16.83;46.42
65019;BME280;66069;51.164;-114.452;2024-03-02T01:50:33;86963.66;;;16.86;46.61
65019;BME280;66069;51.164;-114.452;2024-03-02T01:53:00;86974.81;;;16.94;46.66
65019;BME280;66069;51.164;-114.452;2024-03-02T01:55:28;86977.78;;;16.96;46.60
65019;BME280;66069;51.164;-114.452;2024-03-02T01:57:58;86963.66;;;16.86;46.54
65019;BME280;66069;51.164;-114.452;2024-03-02T02:00:25;86966.22;;;16.90;47.05
65019;BME280;66069;51.164;-114.452;2024-03-02T02:02:52;86987.34;;;17.06;47.04
65019;BME280;66069;51.164;-114.452;2024-03-02T02:05:18;86976.66;;;17.10;47.11
65019;BME280;66069;51.164;-114.452;2024-03-02T02:07:45;86976.25;;;17.11;46.78
65019;BME280;66069;51.164;-114.452;2024-03-02T02:10:11;86964.38;;;17.03;46.69
65019;BME280;66069;51.164;-114.452;2024-03-02T02:12:37;86967.78;;;17.16;46.61
65019;BME280;66069;51.164;-114.452;2024-03-02T02:15:26;86976.03;;;17.18;46.59
65019;BME280;66069;51.164;-114.452;2024-03-02T02:17:51;86980.16;;;17.19;46.41
65019;BME280;66069;51.164;-114.452;2024-03-02T02:20:17;86985.31;;;17.27;46.25
65019;BME280;66069;51.164;-114.452;2024-03-02T02:23:13;86981.38;;;17.31;46.13
65019;BME280;66069;51.164;-114.452;2024-03-02T02:25:39;86984.75;;;17.32;46.15
65019;BME280;66069;51.164;-114.452;2024-03-02T02:28:06;86974.78;;;17.23;46.10
65019;BME280;66069;51.164;-114.452;2024-03-02T02:30:32;86974.13;;;17.19;46.10
65019;BME280;66069;51.164;-114.452;2024-03-02T02:32:59;87001.41;;;17.32;46.48
65019;BME280;66069;51.164;-114.452;2024-03-02T02:35:25;86998.00;;;17.32;46.81
65019;BME280;66069;51.164;-114.452;2024-03-02T02:37:54;86994.19;;;17.33;46.78
65019;BME280;66069;51.164;-114.452;2024-03-02T02:40:20;86998.44;;;17.30;47.01
65019;BME280;66069;51.164;-114.452;2024-03-02T02:42:46;87014.66;;;17.32;47.10
65019;BME280;66069;51.164;-114.452;2024-03-02T02:45:13;87010.28;;;17.26;47.14
65019;BME280;66069;51.164;-114.452;2024-03-02T02:47:41;87021.53;;;17.30;47.35
65019;BME280;66069;51.164;-114.452;2024-03-02T02:50:08;87019.84;;;17.36;48.87
65019;BME280;66069;51.164;-114.452;2024-03-02T02:52:35;87024.31;;;17.39;49.34
65019;BME280;66069;51.164;-114.452;2024-03-02T02:55:03;87025.81;;;17.40;49.34
65019;BME280;66069;51.164;-114.452;2024-03-02T02:57:34;87020.16;;;17.38;49.22
65019;BME280;66069;51.164;-114.452;2024-03-02T03:00:10;87019.66;;;17.43;49.06
65019;BME280;66069;51.164;-114.452;2024-03-02T03:02:40;87004.69;;;17.36;49.14
65019;BME280;66069;51.164;-114.452;2024-03-02T03:05:11;87021.13;;;17.44;48.92
65019;BME280;66069;51.164;-114.452;2024-03-02T03:07:40;87017.88;;;17.40;49.15
65019;BME280;66069;51.164;-114.452;2024-03-02T03:10:07;87018.19;;;17.42;49.07
65019;BME280;66069;51.164;-114.452;2024-03-02T03:12:34;87023.91;;;17.40;48.78
65019;BME280;66069;51.164;-114.452;2024-03-02T03:15:01;87018.25;;;17.38;48.47
65019;BME280;66069;51.164;-114.452;2024-03-02T03:17:28;87015.31;;;17.36;48.32
65019;BME280;66069;51.164;-114.452;2024-03-02T03:19:54;87020.59;;;17.36;48.26
65019;BME280;66069;51.164;-114.452;2024-03-02T03:22:21;87011.38;;;17.28;48.08
65019;BME280;66069;51.164;-114.452;2024-03-02T03:24:47;87021.75;;;17.35;47.86
65019;BME280;66069;51.164;-114.452;2024-03-02T03:27:13;87019.19;;;17.32;47.58
65019;BME280;66069;51.164;-114.452;2024-03-02T03:29:39;87027.72;;;17.39;47.29
65019;BME280;66069;51.164;-114.452;2024-03-02T03:32:06;86993.66;;;17.25;46.98
65019;BME280;66069;51.164;-114.452;2024-03-02T03:34:33;86990.91;;;17.29;46.75
65019;BME280;66069;51.164;-114.452;2024-03-02T03:36:59;87013.94;;;17.44;46.90
65019;BME280;66069;51.164;-114.452;2024-03-02T03:39:25;87000.47;;;17.39;46.66
65019;BME280;66069;51.164;-114.452;2024-03-02T03:41:52;87008.22;;;17.46;46.80
65019;BME280;66069;51.164;-114.452;2024-03-02T03:44:18;87006.72;;;17.45;46.57
65019;BME280;66069;51.164;-114.452;2024-03-02T03:46:44;87007.50;;;17.45;46.72
65019;BME280;66069;51.164;-114.452;2024-03-02T03:49:10;87002.59;;;17.44;46.70
65019;BME280;66069;51.164;-114.452;2024-03-02T03:51:37;87002.28;;;17.42;46.62
65019;BME280;66069;51.164;-114.452;2024-03-02T03:54:03;87007.50;;;17.45;46.77
65019;BME280;66069;51.164;-114.452;2024-03-02T03:56:29;87000.06;;;17.40;46.64
65019;BME280;66069;51.164;-114.452;2024-03-02T03:58:55;86999.63;;;17.42;46.70
65019;BME280;66069;51.164;-114.452;2024-03-02T04:01:21;87006.31;;;17.46;46.73
65019;BME280;66069;51.164;-114.452;2024-03-02T04:03:48;87007.81;;;17.47;46.68
65019;BME280;66069;51.164;-114.452;2024-03-02T04:06:14;86986.47;;;17.38;46.99
65019;BME280;66069;51.164;-114.452;2024-03-02T04:08:43;87001.88;;;17.56;46.73
65019;BME280;66069;51.164;-114.452;2024-03-02T04:11:09;86993.84;;;17.60;46.73
65019;BME280;66069;51.164;-114.452;2024-03-02T04:13:35;86991.91;;;17.60;46.75
65019;BME280;66069;51.164;-114.452;2024-03-02T04:16:02;87001.03;;;17.59;46.64
65019;BME280;66069;51.164;-114.452;2024-03-02T04:18:29;87005.59;;;17.59;46.63
65019;BME280;66069;51.164;-114.452;2024-03-02T04:20:55;87005.25;;;17.57;46.65
65019;BME280;66069;51.164;-114.452;2024-03-02T04:23:22;87008.56;;;17.61;46.55
65019;BME280;66069;51.164;-114.452;2024-03-02T04:25:48;87015.03;;;17.60;46.50
65019;BME280;66069;51.164;-114.452;2024-03-02T04:28:14;87022.25;;;17.59;46.50
65019;BME280;66069;51.164;-114.452;2024-03-02T04:30:40;87022.69;;;17.58;46.42
65019;BME280;66069;51.164;-114.452;2024-03-02T04:33:06;87024.56;;;17.57;46.33
65019;BME280;66069;51.164;-114.452;2024-03-02T04:35:38;87010.56;;;17.57;46.44
65019;BME280;66069;51.164;-114.452;2024-03-02T04:38:05;86995.94;;;17.52;46.36
65019;BME280;66069;51.164;-114.452;2024-03-02T04:40:31;86993.28;;;17.52;46.36
65019;BME280;66069;51.164;-114.452;2024-03-02T04:42:57;86982.69;;;17.52;46.30
65019;BME280;66069;51.164;-114.452;2024-03-02T04:45:24;86999.97;;;17.57;46.47
65019;BME280;66069;51.164;-114.452;2024-03-02T04:47:51;86995.00;;;17.59;46.44
65019;BME280;66069;51.164;-114.452;2024-03-02T04:50:17;86991.19;;;17.60;46.54
65019;BME280;66069;51.164;-114.452;2024-03-02T04:52:43;87004.88;;;17.58;46.47
65019;BME280;66069;51.164;-114.452;2024-03-02T04:55:09;87013.88;;;17.61;46.44
65019;BME280;66069;51.164;-114.452;2024-03-02T04:57:43;86983.22;;;17.47;46.51
65019;BME280;66069;51.164;-114.452;2024-03-02T05:00:10;86993.72;;;17.63;46.56
65019;BME280;66069;51.164;-114.452;2024-03-02T05:02:36;86991.81;;;17.64;46.60
65019;BME280;66069;51.164;-114.452;2024-03-02T05:05:02;86981.00;;;17.58;46.48
65019;BME280;66069;51.164;-114.452;2024-03-02T05:07:28;86992.22;;;17.62;46.55
65019;BME280;66069;51.164;-114.452;2024-03-02T05:09:55;87003.69;;;17.59;46.54
65019;BME280;66069;51.164;-114.452;2024-03-02T05:12:22;86987.84;;;17.43;46.61
65019;BME280;66069;51.164;-114.452;2024-03-02T05:14:48;87017.78;;;17.56;46.49
65019;BME280;66069;51.164;-114.452;2024-03-02T05:17:14;87020.34;;;17.60;46.51
65019;BME280;66069;51.164;-114.452;2024-03-02T05:19:40;87016.59;;;17.57;46.61
65019;BME280;66069;51.164;-114.452;2024-03-02T05:22:06;87035.94;;;17.58;46.34
65019;BME280;66069;51.164;-114.452;2024-03-02T05:24:32;87021.56;;;17.42;46.32
65019;BME280;66069;51.164;-114.452;2024-03-02T05:26:59;87037.28;;;17.49;46.28
65019;BME280;66069;51.164;-114.452;2024-03-02T05:29:25;87029.53;;;17.55;46.15
65019;BME280;66069;51.164;-114.452;2024-03-02T05:31:51;87019.38;;;17.54;46.34
65019;BME280;66069;51.164;-114.452;2024-03-02T05:34:18;87022.44;;;17.52;46.14
65019;BME280;66069;51.164;-114.452;2024-03-02T05:36:44;87011.50;;;17.50;46.22
65019;BME280;66069;51.164;-114.452;2024-03-02T05:39:10;87023.28;;;17.49;46.05
65019;BME280;66069;51.164;-114.452;2024-03-02T05:41:36;87005.56;;;17.33;46.15
65019;BME280;66069;51.164;-114.452;2024-03-02T05:44:04;87023.41;;;17.45;45.95
65019;BME280;66069;51.164;-114.452;2024-03-02T05:46:30;87033.34;;;17.41;45.92
65019;BME280;66069;51.164;-114.452;2024-03-02T05:48:56;87035.44;;;17.34;46.01
65019;BME280;66069;51.164;-114.452;2024-03-02T05:51:23;87051.56;;;17.39;45.94
65019;BME280;66069;51.164;-114.452;2024-03-02T05:53:49;87045.38;;;17.30;45.87
65019;BME280;66069;51.164;-114.452;2024-03-02T05:56:15;87054.91;;;17.27;45.93
65019;BME280;66069;51.164;-114.452;2024-03-02T05:58:42;87067.63;;;17.32;45.86
65019;BME280;66069;51.164;-114.452;2024-03-02T06:01:18;87067.63;;;17.32;45.70
65019;BME280;66069;51.164;-114.452;2024-03-02T06:03:44;87055.25;;;17.29;45.67
65019;BME280;66069;51.164;-114.452;2024-03-02T06:06:10;87057.22;;;17.25;45.73
65019;BME280;66069;51.164;-114.452;2024-03-02T06:08:36;87038.78;;;17.21;45.74
65019;BME280;66069;51.164;-114.452;2024-03-02T06:11:03;87042.91;;;17.22;45.68
65019;BME280;66069;51.164;-114.452;2024-03-02T06:13:29;87050.94;;;17.19;45.61
65019;BME280;66069;51.164;-114.452;2024-03-02T06:15:55;87070.22;;;17.19;45.64
65019;BME280;66069;51.164;-114.452;2024-03-02T06:18:21;87052.84;;;17.18;45.50
65019;BME280;66069;51.164;-114.452;2024-03-02T06:20:48;87065.03;;;17.16;45.61
65019;BME280;66069;51.164;-114.452;2024-03-02T06:23:14;87082.84;;;17.15;45.29
65019;BME280;66069;51.164;-114.452;2024-03-02T06:25:41;87064.50;;;17.08;45.55
65019;BME280;66069;51.164;-114.452;2024-03-02T06:28:07;87048.16;;;17.10;45.46
65019;BME280;66069;51.164;-114.452;2024-03-02T06:30:33;87052.72;;;17.09;45.48
65019;BME280;66069;51.164;-114.452;2024-03-02T06:33:00;87041.47;;;17.05;45.55
65019;BME280;66069;51.164;-114.452;2024-03-02T06:35:26;87031.63;;;17.06;45.56
65019;BME280;66069;51.164;-114.452;2024-03-02T06:37:52;87019.31;;;16.99;45.39
65019;BME280;66069;51.164;-114.452;2024-03-02T06:40:18;87041.16;;;17.03;45.55
65019;BME280;66069;51.164;-114.452;2024-03-02T06:42:44;87030.22;;;17.01;45.47
65019;BME280;66069;51.164;-114.452;2024-03-02T06:45:11;87034.47;;;16.99;45.45
65019;BME280;66069;51.164;-114.452;2024-03-02T06:47:37;87028.94;;;16.93;45.52
65019;BME280;66069;51.164;-114.452;2024-03-02T06:50:04;87039.50;;;16.93;45.32
65019;BME280;66069;51.164;-114.452;2024-03-02T06:52:30;87036.56;;;16.91;45.31
65019;BME280;66069;51.164;-114.452;2024-03-02T06:54:56;87007.44;;;16.75;45.36
65019;BME280;66069;51.164;-114.452;2024-03-02T06:57:22;87034.72;;;16.88;45.40
65019;BME280;66069;51.164;-114.452;2024-03-02T06:59:50;87037.47;;;16.84;45.33
65019;BME280;66069;51.164;-114.452;2024-03-02T07:02:17;87039.38;;;16.84;45.46
65019;BME280;66069;51.164;-114.452;2024-03-02T07:04:43;87034.25;;;16.77;45.22
65019;BME280;66069;51.164;-114.452;2024-03-02T07:07:11;87049.72;;;16.78;45.26
65019;BME280;66069;51.164;-114.452;2024-03-02T07:09:37;87038.06;;;16.76;45.26
65019;BME280;66069;51.164;-114.452;2024-03-02T07:12:03;87038.19;;;16.68;45.29
65019;BME280;66069;51.164;-114.452;2024-03-02T07:14:30;87046.84;;;16.73;45.14
65019;BME280;66069;51.164;-114.452;2024-03-02T07:17:14;87050.28;;;16.69;45.19
65019;BME280;66069;51.164;-114.452;2024-03-02T07:19:40;87052.91;;;16.69;45.31
65019;BME280;66069;51.164;-114.452;2024-03-02T07:22:07;87046.25;;;16.65;45.13
65019;BME280;66069;51.164;-114.452;2024-03-02T07:24:41;87062.44;;;16.67;45.29
65019;BME280;66069;51.164;-114.452;2024-03-02T07:27:11;87056.59;;;16.59;45.29
65019;BME280;66069;51.164;-114.452;2024-03-02T07:29:38;87056.16;;;16.61;45.15
65019;BME280;66069;51.164;-114.452;2024-03-02T07:32:05;87052.03;;;16.60;45.14
65019;BME280;66069;51.164;-114.452;2024-03-02T07:34:32;87049.81;;;16.58;45.19
65019;BME280;66069;51.164;-114.452;2024-03-02T07:36:58;87039.72;;;16.53;45.10
65019;BME280;66069;51.164;-114.452;2024-03-02T07:39:25;87043.66;;;16.45;45.17
65019;BME280;66069;51.164;-114.452;2024-03-02T07:41:51;87065.09;;;16.51;45.17
65019;BME280;66069;51.164;-114.452;2024-03-02T07:44:18;87068.56;;;16.48;45.10
65019;BME280;66069;51.164;-114.452;2024-03-02T07:46:45;87070.81;;;16.49;45.19
65019;BME280;66069;51.164;-114.452;2024-03-02T07:49:18;87058.00;;;16.48;45.08
65019;BME280;66069;51.164;-114.452;2024-03-02T07:51:45;87057.63;;;16.46;45.19
65019;BME280;66069;51.164;-114.452;2024-03-02T07:54:11;87053.25;;;16.39;45.21
65019;BME280;66069;51.164;-114.452;2024-03-02T07:56:37;87072.88;;;16.41;45.17
65019;BME280;66069;51.164;-114.452;2024-03-02T07:59:04;87065.34;;;16.40;45.02
65019;BME280;66069;51.164;-114.452;2024-03-02T08:01:31;87051.88;;;16.34;45.16
65019;BME280;66069;51.164;-114.452;2024-03-02T08:03:59;87042.84;;;16.32;45.37
65019;BME280;66069;51.164;-114.452;2024-03-02T08:06:28;87032.25;;;16.32;45.10
65019;BME280;66069;51.164;-114.452;2024-03-02T08:08:55;87030.88;;;16.27;45.03
65019;BME280;66069;51.164;-114.452;2024-03-02T08:11:22;87037.25;;;16.30;45.17
65019;BME280;66069;51.164;-114.452;2024-03-02T08:13:49;87053.91;;;16.27;44.93
65019;BME280;66069;51.164;-114.452;2024-03-02T08:16:18;87051.69;;;16.25;44.95
65019;BME280;66069;51.164;-114.452;2024-03-02T08:18:48;87051.03;;;16.21;44.97
65019;BME280;66069;51.164;-114.452;2024-03-02T08:21:15;87063.50;;;16.21;45.09
65019;BME280;66069;51.164;-114.452;2024-03-02T08:23:42;87066.91;;;16.21;45.07
65019;BME280;66069;51.164;-114.452;2024-03-02T08:26:09;87060.84;;;16.21;44.96
65019;BME280;66069;51.164;-114.452;2024-03-02T08:28:36;87046.06;;;16.07;45.17
65019;BME280;66069;51.164;-114.452;2024-03-02T08:31:08;87051.53;;;16.16;45.04
65019;BME280;66069;51.164;-114.452;2024-03-02T08:33:35;87037.06;;;16.04;44.78
65019;BME280;66069;51.164;-114.452;2024-03-02T08:36:01;87049.69;;;16.13;45.01
65019;BME280;66069;51.164;-114.452;2024-03-02T08:38:28;87048.22;;;16.12;45.12
65019;BME280;66069;51.164;-114.452;2024-03-02T08:40:55;87036.31;;;16.04;44.98
65019;BME280;66069;51.164;-114.452;2024-03-02T08:43:21;87043.50;;;16.03;44.98
65019;BME280;66069;51.164;-114.452;2024-03-02T08:45:48;87042.00;;;16.02;45.09
65019;BME280;66069;51.164;-114.452;2024-03-02T08:48:14;87044.31;;;16.00;45.04
65019;BME280;66069;51.164;-114.452;2024-03-02T08:50:41;87049.94;;;16.02;45.17
65019;BME280;66069;51.164;-114.452;2024-03-02T08:53:07;87041.25;;;16.02;45.02
65019;BME280;66069;51.164;-114.452;2024-03-02T08:55:33;87053.41;;;15.99;44.90
65019;BME280;66069;51.164;-114.452;2024-03-02T08:57:59;87045.53;;;15.96;45.09
65019;BME280;66069;51.164;-114.452;2024-03-02T09:00:26;87026.13;;;15.86;44.78
65019;BME280;66069;51.164;-114.452;2024-03-02T09:02:52;87011.28;;;15.92;44.99
65019;BME280;66069;51.164;-114.452;2024-03-02T09:05:18;87003.34;;;15.92;45.03
65019;BME280;66069;51.164;-114.452;2024-03-02T09:07:45;86995.09;;;15.90;44.98
65019;BME280;66069;51.164;-114.452;2024-03-02T09:10:11;86992.50;;;15.86;45.02
65019;BME280;66069;51.164;-114.452;2024-03-02T09:12:38;87002.34;;;15.86;45.01
65019;BME280;66069;51.164;-114.452;2024-03-02T09:15:05;87001.19;;;15.87;44.94
65019;BME280;66069;51.164;-114.452;2024-03-02T09:17:34;86998.22;;;15.85;44.98
65019;BME280;66069;51.164;-114.452;2024-03-02T09:20:00;86980.75;;;15.71;44.92
65019;BME280;66069;51.164;-114.452;2024-03-02T09:22:26;86992.56;;;15.83;44.79
65019;BME280;66069;51.164;-114.452;2024-03-02T09:24:53;86991.50;;;15.80;44.81
65019;BME280;66069;51.164;-114.452;2024-03-02T09:27:19;86990.03;;;15.79;44.91
65019;BME280;66069;51.164;-114.452;2024-03-02T09:29:45;86988.19;;;15.76;45.02
65019;BME280;66069;51.164;-114.452;2024-03-02T09:32:14;86989.78;;;15.74;44.95
65019;BME280;66069;51.164;-114.452;2024-03-02T09:34:41;86987.13;;;15.74;44.83
65019;BME280;66069;51.164;-114.452;2024-03-02T09:37:08;86979.28;;;15.70;44.84
65019;BME280;66069;51.164;-114.452;2024-03-02T09:39:35;86982.66;;;15.71;44.89
65019;BME280;66069;51.164;-114.452;2024-03-02T09:42:01;86988.03;;;15.67;44.93
65019;BME280;66069;51.164;-114.452;2024-03-02T09:44:29;86981.59;;;15.68;45.04
65019;BME280;66069;51.164;-114.452;2024-03-02T09:46:56;86977.88;;;15.66;44.90
65019;BME280;66069;51.164;-114.452;2024-03-02T09:49:22;86985.44;;;15.64;44.88
65019;BME280;66069;51.164;-114.452;2024-03-02T09:51:49;86989.25;;;15.63;45.04
65019;BME280;66069;51.164;-114.452;2024-03-02T09:54:16;86983.69;;;15.57;44.95
65019;BME280;66069;51.164;-114.452;2024-03-02T09:56:43;86994.59;;;15.59;44.92
65019;BME280;66069;51.164;-114.452;2024-03-02T09:59:10;86980.28;;;15.56;45.02
65019;BME280;66069;51.164;-114.452;2024-03-02T10:01:36;86970.94;;;15.52;44.86
65019;BME280;66069;51.164;-114.452;2024-03-02T10:04:02;86972.09;;;15.51;44.92
65019;BME280;66069;51.164;-114.452;2024-03-02T10:06:29;86988.69;;;15.51;44.96
65019;BME280;66069;51.164;-114.452;2024-03-02T10:08:55;86987.97;;;15.51;44.99
65019;BME280;66069;51.164;-114.452;2024-03-02T10:11:32;86984.56;;;15.50;44.98
65019;BME280;66069;51.164;-114.452;2024-03-02T10:14:08;86979.44;;;15.43;44.97
65019;BME280;66069;51.164;-114.452;2024-03-02T10:16:41;86992.59;;;15.47;44.94
65019;BME280;66069;51.164;-114.452;2024-03-02T10:19:21;86995.63;;;15.45;44.86
65019;BME280;66069;51.164;-114.452;2024-03-02T10:21:52;86990.16;;;15.36;44.86
65019;BME280;66069;51.164;-114.452;2024-03-02T10:24:18;87005.13;;;15.43;44.79
65019;BME280;66069;51.164;-114.452;2024-03-02T10:26:45;87010.88;;;15.38;44.78
65019;BME280;66069;51.164;-114.452;2024-03-02T10:29:12;87008.66;;;15.36;44.98
65019;BME280;66069;51.164;-114.452;2024-03-02T10:31:42;87031.25;;;15.37;44.97
65019;BME280;66069;51.164;-114.452;2024-03-02T10:34:09;87029.78;;;15.36;45.02
65019;BME280;66069;51.164;-114.452;2024-03-02T10:36:37;87022.66;;;15.33;44.89
65019;BME280;66069;51.164;-114.452;2024-03-02T10:39:04;87010.63;;;15.32;44.96
65019;BME280;66069;51.164;-114.452;2024-03-02T10:41:33;87005.06;;;15.26;44.87
65019;BME280;66069;51.164;-114.452;2024-03-02T10:44:04;87011.44;;;15.29;44.88
65019;BME280;66069;51.164;-114.452;2024-03-02T10:46:32;87012.59;;;15.28;44.81
65019;BME280;66069;51.164;-114.452;2024-03-02T10:49:00;87020.91;;;15.26;44.74
65019;BME280;66069;51.164;-114.452;2024-03-02T10:51:31;87013.00;;;15.26;44.72
65019;BME280;66069;51.164;-114.452;2024-03-02T10:54:01;87019.00;;;15.27;44.73
65019;BME280;66069;51.164;-114.452;2024-03-02T10:56:37;87023.97;;;15.25;44.77
65019;BME280;66069;51.164;-114.452;2024-03-02T11:01:56;87018.69;;;15.25;44.68
65019;BME280;66069;51.164;-114.452;2024-03-02T11:04:25;87029.84;;;15.32;44.81
65019;BME280;66069;51.164;-114.452;2024-03-02T11:06:56;87031.69;;;15.35;44.85
65019;BME280;66069;51.164;-114.452;2024-03-02T11:09:27;87025.56;;;15.39;44.74
65019;BME280;66069;51.164;-114.452;2024-03-02T11:14:44;87016.75;;;15.45;45.01
65019;BME280;66069;51.164;-114.452;2024-03-02T11:17:15;87014.06;;;15.49;45.08
65019;BME280;66069;51.164;-114.452;2024-03-02T11:19:42;87018.50;;;15.52;45.24
65019;BME280;66069;51.164;-114.452;2024-03-02T11:22:10;86995.34;;;15.40;45.26
65019;BME280;66069;51.164;-114.452;2024-03-02T11:24:36;87013.50;;;15.57;45.08
65019;BME280;66069;51.164;-114.452;2024-03-02T11:27:04;86992.25;;;15.45;45.20
65019;BME280;66069;51.164;-114.452;2024-03-02T11:32:06;87001.84;;;15.55;45.10
65019;BME280;66069;51.164;-114.452;2024-03-02T11:34:34;87016.81;;;15.61;45.21
65019;BME280;66069;51.164;-114.452;2024-03-02T11:37:04;87014.53;;;15.64;45.13
65019;BME280;66069;51.164;-114.452;2024-03-02T11:39:30;87010.41;;;15.63;45.03
65019;BME280;66069;51.164;-114.452;2024-03-02T11:41:57;87008.84;;;15.65;44.96
65019;BME280;66069;51.164;-114.452;2024-03-02T11:44:27;87000.50;;;15.67;44.97
65019;BME280;66069;51.164;-114.452;2024-03-02T11:47:01;87002.72;;;15.68;44.86
65019;BME280;66069;51.164;-114.452;2024-03-02T11:52:05;87001.16;;;15.71;44.90
65019;BME280;66069;51.164;-114.452;2024-03-02T11:54:35;87003.00;;;15.74;44.85
65019;BME280;66069;51.164;-114.452;2024-03-02T11:57:03;87011.66;;;15.74;44.97
65019;BME280;66069;51.164;-114.452;2024-03-02T11:59:29;87005.88;;;15.79;44.73
65019;BME280;66069;51.164;-114.452;2024-03-02T12:01:56;87019.44;;;15.81;44.70
65019;BME280;66069;51.164;-114.452;2024-03-02T12:04:23;87014.81;;;15.85;45.00
65019;BME280;66069;51.164;-114.452;2024-03-02T12:06:57;87015.88;;;15.88;45.01
65019;BME280;66069;51.164;-114.452;2024-03-02T12:09:27;87008.31;;;15.90;45.14
65019;BME280;66069;51.164;-114.452;2024-03-02T12:12:08;87018.72;;;15.97;45.26
65019;BME280;66069;51.164;-114.452;2024-03-02T12:14:36;87027.66;;;16.03;45.28
65019;BME280;66069;51.164;-114.452;2024-03-02T12:17:04;87037.72;;;16.08;45.38
65019;BME280;66069;51.164;-114.452;2024-03-02T12:19:32;87035.06;;;16.08;45.37
65019;BME280;66069;51.164;-114.452;2024-03-02T12:21:59;87039.78;;;16.17;45.46
65019;BME280;66069;51.164;-114.452;2024-03-02T12:24:29;87036.66;;;16.22;45.60
65019;BME280;66069;51.164;-114.452;2024-03-02T12:26:56;87029.47;;;16.23;45.56
65019;BME280;66069;51.164;-114.452;2024-03-02T12:29:23;87033.44;;;16.31;45.71
65019;BME280;66069;51.164;-114.452;2024-03-02T12:31:51;87035.66;;;16.32;45.73
65019;BME280;66069;51.164;-114.452;2024-03-02T12:34:20;87030.13;;;16.43;45.68
65019;BME280;66069;51.164;-114.452;2024-03-02T12:36:47;87037.56;;;16.48;45.79
65019;BME280;66069;51.164;-114.452;2024-03-02T12:39:19;87040.88;;;16.52;45.79
65019;BME280;66069;51.164;-114.452;2024-03-02T12:41:49;87012.03;;;16.41;45.80
65019;BME280;66069;51.164;-114.452;2024-03-02T12:44:20;87044.41;;;16.62;45.79
65019;BME280;66069;51.164;-114.452;2024-03-02T12:46:46;87044.25;;;16.69;45.81
65019;BME280;66069;51.164;-114.452;2024-03-02T12:49:14;87058.91;;;16.74;45.58